Time;durP1;ratioP1;P1;durP2;ratioP2;P2;SDS_P1;SDS_P2;PMS_P1;PMS_P2;Temp;Humidity;BMP_temperature;BMP_pressure;BME280_temperature;BME280_humidity;BME280_pressure;Samples;Min_cycle;Max_cycle;Signal;HPM_P1;HPM_P2
2022/08/11 00:01:48;;;;;;;0.90;0.60;;;22.10;99.90;;;;;;5138799;27;20479;-72
2022/08/11 00:04:16;;;;;;;0.80;0.63;;;22.10;99.90;;;;;;5138437;27;20771;-71
2022/08/11 00:06:46;;;;;;;0.87;0.60;;;22.00;99.90;;;;;;5138328;27;20550;-72
2022/08/11 00:09:17;;;;;;;0.80;0.60;;;22.00;99.90;;;;;;5138255;27;20811;-71
2022/08/11 00:11:46;;;;;;;1.20;0.57;;;22.00;99.90;;;;;;5138641;27;20486;-71
2022/08/11 00:14:19;;;;;;;0.80;0.60;;;21.90;99.90;;;;;;5138284;27;20538;-71
2022/08/11 00:16:55;;;;;;;0.70;0.60;;;21.90;99.90;;;;;;5138373;27;20519;-71
2022/08/11 00:19:24;;;;;;;0.70;0.53;;;21.80;99.90;;;;;;5138291;27;20936;-72
2022/08/11 00:21:52;;;;;;;1.30;0.60;;;21.70;99.90;;;;;;5138106;27;20890;-72
2022/08/11 00:24:19;;;;;;;2.50;0.60;;;21.70;99.90;;;;;;5137897;27;20522;-71
2022/08/11 00:26:50;;;;;;;0.70;0.60;;;21.70;99.90;;;;;;5138208;27;20443;-74
2022/08/11 00:29:20;;;;;;;0.70;0.60;;;21.60;99.90;;;;;;5137969;27;20459;-72
2022/08/11 00:31:50;;;;;;;1.00;0.50;;;21.60;99.90;;;;;;5137870;27;20530;-72
2022/08/11 00:34:20;;;;;;;0.60;0.50;;;21.60;99.90;;;;;;5137907;27;20448;-72
2022/08/11 00:36:52;;;;;;;0.80;0.60;;;21.50;99.90;;;;;;5138052;27;20744;-72
2022/08/11 00:39:22;;;;;;;1.50;0.60;;;21.50;99.90;;;;;;5138180;27;20555;-71
2022/08/11 00:42:05;;;;;;;0.90;0.57;;;21.50;99.90;;;;;;5137979;27;20514;-72
2022/08/11 00:44:44;;;;;;;2.27;0.70;;;21.50;99.90;;;;;;5137705;27;20483;-72
2022/08/11 00:47:24;;;;;;;0.87;0.63;;;21.50;99.90;;;;;;5137989;27;20937;-72
2022/08/11 00:50:02;;;;;;;0.50;0.50;;;21.50;99.90;;;;;;5138006;27;20759;-72
2022/08/11 00:53:05;;;;;;;0.93;0.60;;;21.50;99.90;;;;;;5138066;27;20855;-72
2022/08/11 00:55:58;;;;;;;0.60;0.50;;;21.40;99.90;;;;;;5110557;27;20451;-71
2022/08/11 00:58:59;;;;;;;1.20;0.50;;;21.40;99.90;;;;;;5137340;27;20440;-71
2022/08/11 01:01:46;;;;;;;0.70;0.50;;;21.40;99.90;;;;;;5136513;27;20875;-71
2022/08/11 01:04:38;;;;;;;1.00;0.60;;;21.40;99.90;;;;;;5135274;27;20510;-71
2022/08/11 01:07:51;;;;;;;1.97;0.60;;;21.30;99.90;;;;;;5135168;27;20444;-71
2022/08/11 01:10:48;;;;;;;1.20;0.50;;;21.30;99.90;;;;;;5135868;27;20487;-72
2022/08/11 01:13:39;;;;;;;0.80;0.60;;;21.20;99.90;;;;;;5135686;27;20475;-72
2022/08/11 01:17:08;;;;;;;0.67;0.60;;;21.10;99.90;;;;;;5136586;27;20483;-71
2022/08/11 01:20:10;;;;;;;0.93;0.57;;;21.00;99.90;;;;;;5033899;28;20510;-72
2022/08/11 01:23:31;;;;;;;0.73;0.60;;;21.10;99.90;;;;;;5131908;27;20485;-71
2022/08/11 01:26:28;;;;;;;0.70;0.50;;;21.20;99.90;;;;;;5137356;27;20598;-72
2022/08/11 01:29:36;;;;;;;1.07;0.70;;;21.20;99.90;;;;;;5136911;27;20531;-71
2022/08/11 01:32:43;;;;;;;1.10;0.50;;;21.10;99.90;;;;;;5100498;28;20534;-72
2022/08/11 01:35:35;;;;;;;0.80;0.50;;;21.10;99.90;;;;;;5042216;28;20518;-72
2022/08/11 01:38:35;;;;;;;1.03;0.57;;;21.10;99.90;;;;;;5136938;27;20471;-72
2022/08/11 01:45:16;;;;;;;0.70;0.60;;;21.10;99.90;;;;;;5126104;27;20474;-72
2022/08/11 01:47:55;;;;;;;0.87;0.60;;;21.10;99.90;;;;;;5137301;27;20486;-72
2022/08/11 01:50:46;;;;;;;2.00;0.60;;;21.10;99.90;;;;;;5137280;27;20463;-72
2022/08/11 01:53:23;;;;;;;0.60;0.50;;;21.00;99.90;;;;;;5136993;27;20448;-71
2022/08/11 01:56:12;;;;;;;0.53;0.40;;;21.00;99.90;;;;;;5137293;27;20504;-72
2022/08/11 01:58:43;;;;;;;0.77;0.60;;;21.10;99.90;;;;;;5136959;27;20450;-71
2022/08/11 02:01:26;;;;;;;0.60;0.50;;;21.00;99.90;;;;;;5137200;27;20486;-72
2022/08/11 02:03:57;;;;;;;0.70;0.53;;;20.90;99.90;;;;;;5136934;27;20520;-72
2022/08/11 02:06:55;;;;;;;0.90;0.70;;;20.90;99.90;;;;;;5137032;27;20569;-72
2022/08/11 02:09:33;;;;;;;0.80;0.60;;;20.90;99.90;;;;;;5136637;27;20942;-72
2022/08/11 02:12:09;;;;;;;0.63;0.60;;;20.80;99.90;;;;;;5128698;27;20515;-72
2022/08/11 02:14:44;;;;;;;0.80;0.60;;;20.70;99.90;;;;;;5119285;28;20452;-72
2022/08/11 02:17:19;;;;;;;0.83;0.60;;;20.70;99.90;;;;;;5120183;28;20440;-71
2022/08/11 02:25:46;;;;;;;0.80;0.60;;;20.70;99.90;;;;;;5119686;28;20557;-71
2022/08/11 02:28:22;;;;;;;0.70;0.53;;;20.80;99.90;;;;;;5119465;28;20448;-72
2022/08/11 02:33:43;;;;;;;1.73;0.70;;;20.90;99.90;;;;;;5118560;28;20450;-72
2022/08/11 02:36:18;;;;;;;1.00;0.80;;;20.90;99.90;;;;;;5119626;28;20482;-72
2022/08/11 02:38:53;;;;;;;0.70;0.60;;;20.80;99.90;;;;;;5119735;28;20444;-72
2022/08/11 02:44:28;;;;;;;1.20;0.80;;;20.70;99.90;;;;;;5119139;28;20526;-72
2022/08/11 02:47:06;;;;;;;1.37;0.70;;;20.60;99.90;;;;;;5119923;28;20476;-72
2022/08/11 02:49:55;;;;;;;1.00;0.70;;;20.50;99.90;;;;;;5119615;28;20895;-72
2022/08/11 02:52:31;;;;;;;0.90;0.70;;;20.50;99.90;;;;;;5119896;28;20436;-72
2022/08/11 02:55:22;;;;;;;0.90;0.70;;;20.40;99.90;;;;;;5119444;28;20440;-72
2022/08/11 02:57:56;;;;;;;1.33;0.93;;;20.40;99.90;;;;;;5119390;28;20480;-72
2022/08/11 03:00:25;;;;;;;1.00;0.63;;;20.30;99.90;;;;;;5119272;28;20463;-72
2022/08/11 03:03:06;;;;;;;0.90;0.80;;;20.30;99.90;;;;;;5119056;28;20479;-72
2022/08/11 03:06:04;;;;;;;1.33;0.70;;;20.30;99.90;;;;;;5119152;28;20488;-71
2022/08/11 03:08:51;;;;;;;0.80;0.60;;;20.20;99.90;;;;;;5118929;28;20836;-72
2022/08/11 03:17:16;;;;;;;1.13;0.70;;;20.20;99.90;;;;;;5118930;28;20452;-72
2022/08/11 03:19:53;;;;;;;0.93;0.60;;;20.20;99.90;;;;;;5118699;28;20453;-72
2022/08/11 03:22:25;;;;;;;5.83;0.70;;;20.10;99.90;;;;;;5118751;28;20444;-72
2022/08/11 03:25:00;;;;;;;0.90;0.70;;;20.10;99.90;;;;;;5118012;28;20490;-72
2022/08/11 03:27:50;;;;;;;0.90;0.73;;;20.00;99.90;;;;;;5118795;28;20486;-71
2022/08/11 03:30:22;;;;;;;1.17;0.70;;;19.90;99.90;;;;;;5118287;28;20914;-72
2022/08/11 03:36:03;;;;;;;1.00;0.70;;;19.80;99.90;;;;;;5118531;28;20428;-72
2022/08/11 03:38:45;;;;;;;0.93;0.70;;;19.70;99.90;;;;;;5118323;28;20761;-72
2022/08/11 03:41:44;;;;;;;0.70;0.60;;;19.60;99.90;;;;;;5118641;28;20535;-71
2022/08/11 03:44:37;;;;;;;1.00;0.67;;;19.70;1.00;;;;;;5118466;28;20456;-72
2022/08/11 03:47:32;;;;;;;1.63;0.70;;;19.80;99.90;;;;;;5118259;28;20961;-71
2022/08/11 03:50:13;;;;;;;0.80;0.60;;;19.80;99.90;;;;;;5075073;28;20481;-72
2022/08/11 03:52:51;;;;;;;0.70;0.60;;;19.80;99.90;;;;;;5118124;28;20467;-72
2022/08/11 03:55:28;;;;;;;1.00;0.70;;;19.80;99.90;;;;;;5118276;28;20491;-71
2022/08/11 03:58:30;;;;;;;1.00;0.60;;;19.80;99.90;;;;;;5118304;28;20444;-72
2022/08/11 04:01:35;;;;;;;1.90;0.70;;;19.80;99.90;;;;;;5111818;28;20500;-72
2022/08/11 04:04:35;;;;;;;0.80;0.60;;;19.80;1.00;;;;;;5117340;28;20511;-72
2022/08/11 04:07:24;;;;;;;2.40;0.67;;;19.70;99.90;;;;;;5117217;28;20481;-72
2022/08/11 04:10:25;;;;;;;1.87;0.60;;;19.70;1.00;;;;;;5116859;28;20951;-72
2022/08/11 04:13:35;;;;;;;1.00;0.70;;;19.60;1.00;;;;;;5132108;27;20583;-73
2022/08/11 04:16:23;;;;;;;1.00;0.60;;;19.60;1.00;;;;;;5137607;27;20479;-72
2022/08/11 04:19:20;;;;;;;1.10;0.60;;;19.50;1.00;;;;;;5136635;27;20813;-71
2022/08/11 04:22:16;;;;;;;1.17;0.80;;;19.50;1.00;;;;;;5136450;27;20475;-71
2022/08/11 04:25:21;;;;;;;2.07;0.83;;;19.60;1.00;;;;;;5136450;27;20456;-72
2022/08/11 04:28:23;;;;;;;0.90;0.80;;;19.50;1.00;;;;;;5136663;27;20440;-72
2022/08/11 04:31:20;;;;;;;1.10;0.80;;;19.50;1.00;;;;;;5135923;27;20549;-71
2022/08/11 04:34:17;;;;;;;0.93;0.70;;;19.40;1.00;;;;;;5133679;27;20447;-71
2022/08/11 04:40:23;;;;;;;1.27;0.80;;;19.40;1.00;;;;;;5136535;27;20452;-70
2022/08/11 04:43:29;;;;;;;1.33;0.70;;;19.40;1.00;;;;;;5119654;27;20836;-71
2022/08/11 04:46:20;;;;;;;1.10;0.70;;;19.40;1.00;;;;;;5136844;27;20475;-70
2022/08/11 05:01:42;;;;;;;0.90;0.80;;;19.50;1.00;;;;;;5136813;27;20455;-70
2022/08/11 05:07:57;;;;;;;0.93;0.70;;;19.40;1.00;;;;;;5104278;27;20427;-71
2022/08/11 05:10:45;;;;;;;1.30;0.80;;;19.40;1.00;;;;;;5127831;27;20490;-72
2022/08/11 05:36:00;;;;;;;1.30;0.70;;;19.90;1.00;;;;;;5134989;27;20510;-71
2022/08/11 05:57:57;;;;;;;0.97;0.73;;;20.10;1.00;;;;;;5139781;27;20419;-72
2022/08/11 06:00:26;;;;;;;3.33;1.00;;;20.10;1.00;;;;;;5139769;27;20788;-71
2022/08/11 06:02:56;;;;;;;2.30;0.90;;;20.20;1.00;;;;;;5139744;27;20528;-71
2022/08/11 06:05:23;;;;;;;2.20;0.90;;;20.20;1.00;;;;;;5140284;27;20546;-71
2022/08/11 06:07:55;;;;;;;4.83;1.30;;;20.30;1.00;;;;;;5140644;27;20783;-71
2022/08/11 06:10:29;;;;;;;1.03;0.90;;;20.50;1.00;;;;;;5141046;27;20828;-72
2022/08/11 06:12:59;;;;;;;12.20;10.90;;;20.50;1.00;;;;;;5140440;27;21019;-72
2022/08/11 06:15:29;;;;;;;1.20;0.90;;;20.60;1.00;;;;;;5139371;27;20459;-71
2022/08/11 06:18:00;;;;;;;2.57;0.80;;;20.70;1.00;;;;;;5139631;27;20467;-72
2022/08/11 06:20:31;;;;;;;1.00;0.90;;;20.70;1.00;;;;;;5139010;27;20462;-72
2022/08/11 06:23:02;;;;;;;1.20;0.90;;;20.70;1.00;;;;;;5138409;27;20443;-73
2022/08/11 06:25:34;;;;;;;0.90;0.80;;;20.60;1.00;;;;;;5138673;27;20950;-73
2022/08/11 06:28:04;;;;;;;2.00;0.90;;;20.70;1.00;;;;;;5139805;27;20976;-72
2022/08/11 06:30:39;;;;;;;1.10;0.80;;;20.70;1.00;;;;;;5138639;27;21088;-73
2022/08/11 06:33:09;;;;;;;1.20;0.80;;;21.00;1.00;;;;;;5138568;27;20443;-73
2022/08/11 06:35:47;;;;;;;1.10;0.87;;;21.10;1.00;;;;;;5139123;27;20546;-72
2022/08/11 06:38:26;;;;;;;1.10;0.80;;;21.30;1.00;;;;;;5139042;27;20459;-72
2022/08/11 06:43:49;;;;;;;1.17;0.80;;;21.30;1.00;;;;;;5138325;27;20424;-73
2022/08/11 06:46:25;;;;;;;0.87;0.70;;;21.30;1.00;;;;;;5139740;27;20518;-72
2022/08/11 06:48:54;;;;;;;2.47;0.90;;;21.40;1.00;;;;;;5138707;27;20518;-72
2022/08/11 06:51:21;;;;;;;0.90;0.70;;;21.50;1.00;;;;;;5138706;27;20444;-72
2022/08/11 06:53:51;;;;;;;1.73;0.90;;;21.60;1.00;;;;;;5137418;27;20440;-72
2022/08/11 07:02:07;;;;;;;1.10;0.80;;;22.10;1.00;;;;;;5137952;27;20466;-72
2022/08/11 07:04:43;;;;;;;1.00;0.80;;;22.20;1.00;;;;;;5138400;27;20936;-72
2022/08/11 07:16:34;;;;;;;1.27;0.70;;;22.50;1.00;;;;;;5139532;27;20423;-71
2022/08/11 07:30:17;;;;;;;1.00;0.70;;;22.70;1.00;;;;;;5135341;27;20428;-73
2022/08/11 07:32:50;;;;;;;0.90;0.80;;;22.80;1.00;;;;;;5115838;28;20988;-73
2022/08/11 07:35:22;;;;;;;3.37;3.10;;;22.80;1.00;;;;;;5122253;27;20571;-73
2022/08/11 07:37:56;;;;;;;3.87;0.90;;;23.00;1.00;;;;;;5134036;27;20448;-72
2022/08/11 07:40:24;;;;;;;1.10;0.90;;;22.90;1.00;;;;;;5136050;27;20448;-72
2022/08/11 07:42:53;;;;;;;2.97;2.17;;;22.90;1.00;;;;;;5135692;27;20521;-72
2022/08/11 07:53:39;;;;;;;1.03;0.90;;;23.50;1.00;;;;;;5116678;28;20482;-71
2022/08/11 07:56:07;;;;;;;1.07;0.80;;;23.70;1.00;;;;;;5116615;28;20440;-71
2022/08/11 08:18:01;;;;;;;1.27;0.83;;;24.10;1.00;;;;;;5094092;28;20424;-71
2022/08/11 08:20:31;;;;;;;1.00;0.87;;;24.30;1.00;;;;;;5094871;28;20466;-70
2022/08/11 08:23:04;;;;;;;1.20;0.80;;;24.40;1.00;;;;;;5095289;28;20901;-71
2022/08/11 08:25:33;;;;;;;0.80;0.80;;;24.60;1.00;;;;;;5095608;28;20493;-72
2022/08/11 08:28:03;;;;;;;0.83;0.80;;;24.80;99.90;;;;;;5095594;28;20532;-72
2022/08/11 08:30:49;;;;;;;1.10;1.00;;;24.80;99.90;;;;;;5096208;28;20540;-71
2022/08/11 08:33:20;;;;;;;1.00;0.70;;;24.90;99.90;;;;;;5094297;28;20754;-72
2022/08/11 08:35:48;;;;;;;0.90;0.70;;;25.00;99.90;;;;;;5093589;28;20449;-72
2022/08/11 08:38:18;;;;;;;0.80;0.70;;;25.00;99.90;;;;;;5093540;28;20888;-72
2022/08/11 08:40:47;;;;;;;1.03;0.80;;;25.20;99.90;;;;;;5094370;28;20487;-71
2022/08/11 08:43:17;;;;;;;1.07;0.70;;;25.30;99.90;;;;;;5094430;28;20445;-72
2022/08/11 08:45:45;;;;;;;0.83;0.70;;;25.40;99.90;;;;;;5094484;28;20473;-72
2022/08/11 08:48:15;;;;;;;1.60;0.90;;;25.50;99.90;;;;;;5094792;28;20448;-72
2022/08/11 08:53:36;;;;;;;1.00;0.70;;;25.60;99.90;;;;;;5094532;28;20421;-72
2022/08/11 08:56:04;;;;;;;1.40;0.70;;;25.70;99.90;;;;;;5094357;28;20489;-72
2022/08/11 08:58:34;;;;;;;0.90;0.77;;;25.70;99.90;;;;;;5093885;28;20445;-72
2022/08/11 09:01:01;;;;;;;0.80;0.70;;;25.70;99.90;;;;;;5093349;28;20499;-72
2022/08/11 09:03:29;;;;;;;0.90;0.80;;;25.80;99.90;;;;;;5092791;28;20523;-71
2022/08/11 09:05:57;;;;;;;1.30;0.90;;;25.90;99.90;;;;;;5093050;28;20488;-71
2022/08/11 09:08:26;;;;;;;0.80;0.70;;;25.90;99.90;;;;;;5094289;28;20441;-71
2022/08/11 09:13:43;;;;;;;1.10;0.70;;;26.10;99.90;;;;;;5111438;28;20857;-71
2022/08/11 09:16:11;;;;;;;0.80;0.70;;;26.10;99.90;;;;;;5112899;28;20459;-71
2022/08/11 09:18:39;;;;;;;1.00;0.80;;;26.30;99.90;;;;;;5112817;28;20772;-71
2022/08/11 09:21:07;;;;;;;1.20;0.73;;;26.30;99.90;;;;;;5112872;28;20476;-71
2022/08/11 09:29:10;;;;;;;0.93;0.80;;;26.40;99.90;;;;;;5114635;28;20424;-72
2022/08/11 09:31:38;;;;;;;0.90;0.70;;;26.40;99.90;;;;;;5114792;28;20543;-72
2022/08/11 09:34:05;;;;;;;0.73;0.60;;;26.50;99.90;;;;;;5112398;28;20527;-72
2022/08/11 09:42:06;;;;;;;0.90;0.60;;;27.00;99.90;;;;;;5112963;28;20481;-72
2022/08/11 09:44:49;;;;;;;0.70;0.60;;;27.00;99.90;;;;;;5113197;28;20444;-72
2022/08/11 09:47:23;;;;;;;0.97;0.70;;;27.10;99.90;;;;;;5114460;28;21029;-70
2022/08/11 09:49:52;;;;;;;0.83;0.70;;;27.20;99.90;;;;;;5113570;28;20499;-70
2022/08/11 09:52:20;;;;;;;0.93;0.80;;;27.10;99.90;;;;;;5114680;28;20460;-70
2022/08/11 09:54:49;;;;;;;1.53;0.70;;;27.20;99.90;;;;;;5115569;28;20445;-70
2022/08/11 10:00:08;;;;;;;0.83;0.70;;;27.40;99.90;;;;;;5113928;28;20421;-71
2022/08/11 10:02:39;;;;;;;3.70;0.60;;;27.50;99.90;;;;;;5114466;28;20532;-71
2022/08/11 10:07:54;;;;;;;0.80;0.50;;;27.60;99.90;;;;;;5114275;28;20621;-71
2022/08/11 10:10:22;;;;;;;0.90;0.70;;;27.70;99.90;;;;;;5112932;28;20864;-70
2022/08/11 10:12:56;;;;;;;1.10;0.60;;;27.60;99.90;;;;;;5113310;28;20480;-69
2022/08/11 10:15:38;;;;;;;1.20;0.60;;;27.80;99.90;;;;;;5112989;28;20760;-70
2022/08/11 10:20:59;;;;;;;4.20;0.73;;;28.10;99.90;;;;;;5112250;28;20240;-71
2022/08/11 10:33:58;;;;;;;0.90;0.70;;;28.90;99.90;;;;;;5114227;28;20416;-73
2022/08/11 10:34:41;;;;;;;2.70;0.70;;;29.40;99.90;;;;;;5114855;28;20420;-73
2022/08/11 10:37:11;;;;;;;1.00;0.60;;;29.70;99.90;;;;;;5116697;28;20449;-71
2022/08/11 10:39:40;;;;;;;0.70;0.60;;;29.70;99.90;;;;;;5116871;28;20459;-73
2022/08/11 10:44:57;;;;;;;0.80;0.50;;;29.60;99.90;;;;;;5117060;28;20419;-71
2022/08/11 10:47:33;;;;;;;0.60;0.60;;;29.90;99.90;;;;;;5116715;28;20523;-72
2022/08/11 11:01:05;;;;;;;1.00;0.80;;;31.00;99.90;;;;;;5055654;28;20748;-70
2022/08/11 11:03:34;;;;;;;1.30;0.60;;;31.10;99.90;;;;;;5079610;28;20476;-70
2022/08/11 11:06:08;;;;;;;0.80;0.60;;;30.60;99.90;;;;;;5116965;28;20783;-71
2022/08/11 11:08:52;;;;;;;0.80;0.70;;;30.10;99.90;;;;;;5117572;28;20480;-70
2022/08/11 11:11:21;;;;;;;0.63;0.53;;;30.40;99.90;;;;;;5117159;28;20851;-70
2022/08/11 11:19:29;;;;;;;1.13;0.67;;;31.60;99.90;;;;;;5076236;27;20434;-72
2022/08/11 11:22:36;;;;;;;0.77;0.60;;;31.60;99.90;;;;;;5135343;27;21068;-70
2022/08/11 11:24:58;;;;;;;0.60;0.53;;;31.60;99.90;;;;;;5135420;27;20434;-71
2022/08/11 11:27:32;;;;;;;0.70;0.50;;;31.50;99.90;;;;;;5137244;27;20581;-70
2022/08/11 11:30:05;;;;;;;0.60;0.60;;;31.20;99.90;;;;;;5136039;27;20435;-70
2022/08/11 11:32:48;;;;;;;0.90;0.60;;;31.50;99.90;;;;;;5134438;27;20452;-70
2022/08/11 11:35:26;;;;;;;0.60;0.50;;;31.60;99.90;;;;;;5136550;27;20450;-71
2022/08/11 11:37:54;;;;;;;0.77;0.57;;;31.90;99.90;;;;;;5135775;27;20498;-70
2022/08/11 11:40:23;;;;;;;1.03;0.70;;;32.00;99.90;;;;;;5136591;27;20550;-70
2022/08/11 11:42:53;;;;;;;0.80;0.50;;;32.10;99.90;;;;;;5133344;27;20447;-71
2022/08/11 11:45:22;;;;;;;0.60;0.50;;;32.10;99.90;;;;;;5134166;27;20818;-71
2022/08/11 11:47:53;;;;;;;0.70;0.60;;;32.00;99.90;;;;;;5136457;27;20515;-71
2022/08/11 11:50:24;;;;;;;0.53;0.50;;;31.90;99.90;;;;;;5136186;27;20444;-71
2022/08/11 11:52:54;;;;;;;1.77;0.50;;;32.00;99.90;;;;;;5135658;27;20456;-70
2022/08/11 11:55:23;;;;;;;1.23;0.53;;;31.70;99.90;;;;;;5134290;27;20538;-72
2022/08/11 12:03:22;;;;;;;0.53;0.50;;;32.10;99.90;;;;;;5135071;27;20730;-71
2022/08/11 12:05:52;;;;;;;0.70;0.50;;;32.40;99.90;;;;;;5134123;27;20447;-71
2022/08/11 12:08:21;;;;;;;0.50;0.50;;;32.80;99.90;;;;;;5134752;27;20770;-71
2022/08/11 12:13:39;;;;;;;0.63;0.57;;;32.70;99.90;;;;;;5134590;27;20527;-71
2022/08/11 12:13:42;;;;;;;0.60;0.50;;;32.90;99.90;;;;;;5135047;27;20427;-71
2022/08/11 12:16:10;;;;;;;0.60;0.50;;;33.10;99.90;;;;;;5135701;27;20466;-71
2022/08/11 12:18:40;;;;;;;0.70;0.60;;;32.70;99.90;;;;;;5136142;27;20685;-71
2022/08/11 12:21:09;;;;;;;1.10;0.60;;;32.90;99.90;;;;;;5136838;27;20487;-71
2022/08/11 12:29:25;;;;;;;0.70;0.60;;;33.30;99.90;;;;;;5070456;28;20430;-71
2022/08/11 12:31:53;;;;;;;0.70;0.60;;;33.10;99.90;;;;;;5121457;27;20475;-71
2022/08/11 12:34:23;;;;;;;0.80;0.50;;;33.10;99.90;;;;;;5135425;27;20432;-71
2022/08/11 12:36:54;;;;;;;1.07;0.90;;;32.70;99.90;;;;;;5134332;27;20556;-70
2022/08/11 12:45:26;;;;;;;0.80;0.50;;;32.40;99.90;;;;;;5134274;27;20451;-71
2022/08/11 12:45:30;;;;;;;0.90;0.57;;;32.60;99.90;;;;;;5096695;27;20420;-72
2022/08/11 12:53:51;;;;;;;0.80;0.60;;;32.70;99.90;;;;;;5135346;27;20433;-71
2022/08/11 13:04:54;;;;;;;0.90;0.60;;;33.60;99.90;;;;;;5134803;27;20911;-71
2022/08/11 13:07:24;;;;;;;0.83;0.50;;;33.30;99.90;;;;;;5136275;27;20487;-71
2022/08/11 13:09:51;;;;;;;0.63;0.50;;;32.80;99.90;;;;;;5136374;27;20452;-71
2022/08/11 13:15:05;;;;;;;0.80;0.60;;;33.10;99.90;;;;;;5136579;27;20418;-71
2022/08/11 13:17:34;;;;;;;0.77;0.60;;;33.50;99.90;;;;;;5136975;27;20448;-71
2022/08/11 13:20:02;;;;;;;0.80;0.50;;;33.70;99.90;;;;;;5135744;27;20440;-71
2022/08/11 13:22:31;;;;;;;1.07;0.53;;;33.50;99.90;;;;;;5130172;27;20562;-71
2022/08/11 13:24:58;;;;;;;0.60;0.57;;;33.50;99.90;;;;;;5119609;27;20545;-71
2022/08/11 13:27:26;;;;;;;0.57;0.50;;;33.70;99.90;;;;;;5132217;27;20565;-71
2022/08/11 13:31:09;;;;;;;0.70;0.50;;;33.70;99.90;;;;;;5134288;27;20938;-71
2022/08/11 13:32:45;;;;;;;0.70;0.50;;;33.40;99.90;;;;;;5133117;27;20451;-71
2022/08/11 13:35:14;;;;;;;0.60;0.50;;;33.20;99.90;;;;;;5132636;27;20498;-71
2022/08/11 13:37:45;;;;;;;2.60;0.60;;;32.90;99.90;;;;;;5129179;27;21057;-71
2022/08/11 13:40:14;;;;;;;0.67;0.50;;;32.60;99.90;;;;;;5132558;27;20480;-70
2022/08/11 13:42:41;;;;;;;0.70;0.60;;;32.70;99.90;;;;;;5132017;28;20454;-71
2022/08/11 13:45:10;;;;;;;0.90;0.60;;;32.70;99.90;;;;;;5130133;28;20475;-71
2022/08/11 13:47:38;;;;;;;1.47;0.50;;;32.80;99.90;;;;;;5134082;28;20472;-71
2022/08/11 13:50:07;;;;;;;0.70;0.60;;;32.90;99.90;;;;;;5134531;28;20474;-71
2022/08/11 13:52:35;;;;;;;1.10;0.50;;;33.10;99.90;;;;;;5133677;27;20475;-70
2022/08/11 13:55:04;;;;;;;0.70;0.60;;;33.20;99.90;;;;;;5131671;27;20534;-71
2022/08/11 13:57:33;;;;;;;0.90;0.50;;;33.10;99.90;;;;;;5131645;27;20770;-72
2022/08/11 14:00:09;;;;;;;2.13;0.60;;;33.10;99.90;;;;;;5131824;27;20858;-70
2022/08/11 14:02:38;;;;;;;0.57;0.50;;;33.20;99.90;;;;;;5133350;27;20451;-72
2022/08/11 14:05:10;;;;;;;1.00;0.57;;;33.10;99.90;;;;;;5134073;27;20496;-72
2022/08/11 14:07:41;;;;;;;0.80;0.50;;;33.00;99.90;;;;;;5133014;27;20483;-71
2022/08/11 14:10:12;;;;;;;0.80;0.57;;;32.90;99.90;;;;;;5136187;27;20475;-72
2022/08/11 14:15:32;;;;;;;0.77;0.50;;;32.60;99.90;;;;;;5135813;27;20423;-73
2022/08/11 14:18:03;;;;;;;1.13;0.50;;;32.40;99.90;;;;;;5134740;27;20986;-72
2022/08/11 14:22:05;;;;;;;1.33;0.57;;;32.40;99.90;;;;;;5135063;27;20863;-72
2022/08/11 14:23:25;;;;;;;1.60;0.53;;;32.40;99.90;;;;;;5122144;27;20464;-72
2022/08/11 14:28:41;;;;;;;4.20;0.60;;;32.10;99.90;;;;;;5124361;27;20521;-71
2022/08/11 14:31:08;;;;;;;1.40;0.70;;;31.80;99.90;;;;;;5128109;27;20538;-70
2022/08/11 14:33:36;;;;;;;0.70;0.60;;;31.80;99.90;;;;;;5125320;27;20461;-71
2022/08/11 14:36:05;;;;;;;0.60;0.50;;;31.80;99.90;;;;;;5127404;27;20452;-71
2022/08/11 14:38:34;;;;;;;0.70;0.60;;;31.70;99.90;;;;;;5126089;27;20474;-71
2022/08/11 14:49:18;;;;;;;0.60;0.50;;;31.70;99.90;;;;;;5137080;27;20922;-71
2022/08/11 14:51:46;;;;;;;0.63;0.50;;;31.70;99.90;;;;;;5137114;27;20514;-71
2022/08/11 14:57:02;;;;;;;1.23;0.40;;;31.40;99.90;;;;;;5137170;27;20480;-71
2022/08/11 14:59:30;;;;;;;0.60;0.53;;;31.30;99.90;;;;;;5142402;27;20934;-70
2022/08/11 15:04:42;;;;;;;0.70;0.50;;;31.30;99.90;;;;;;5137192;27;20419;-71
2022/08/11 15:07:09;;;;;;;0.63;0.50;;;31.10;99.90;;;;;;5134164;27;20991;-71
2022/08/11 15:09:39;;;;;;;0.70;0.60;;;30.80;99.90;;;;;;5143072;27;20544;-71
2022/08/11 15:12:15;;;;;;;0.70;0.50;;;30.80;99.90;;;;;;5158028;27;20481;-71
2022/08/11 15:17:40;;;;;;;0.60;0.50;;;30.70;99.90;;;;;;5072273;28;20716;-71
2022/08/11 15:25:43;;;;;;;0.70;0.50;;;30.60;99.90;;;;;;5131907;27;20427;-72
2022/08/11 15:39:27;;;;;;;0.83;0.60;;;30.60;99.90;;;;;;5135870;27;20503;-73
2022/08/11 15:47:45;;;;;;;0.50;0.50;;;30.60;99.90;;;;;;5133487;27;20447;-70
2022/08/11 15:50:16;;;;;;;0.60;0.50;;;30.40;99.90;;;;;;5135095;27;20519;-70
2022/08/11 15:52:55;;;;;;;0.70;0.60;;;30.40;99.90;;;;;;5133966;27;20558;-70
2022/08/11 15:55:24;;;;;;;0.90;0.57;;;30.20;99.90;;;;;;5116510;28;20599;-71
2022/08/11 16:06:16;;;;;;;1.10;0.50;;;30.10;99.90;;;;;;5121784;27;20488;-72
2022/08/11 16:08:45;;;;;;;0.93;0.60;;;30.00;99.90;;;;;;5130624;27;20491;-71
2022/08/11 16:11:14;;;;;;;0.67;0.53;;;30.00;99.90;;;;;;5130787;27;21065;-71
2022/08/11 16:16:28;;;;;;;1.20;0.70;;;30.10;99.90;;;;;;5121435;27;20447;-68
2022/08/11 16:18:57;;;;;;;2.20;0.70;;;30.00;99.90;;;;;;5111494;28;20512;-70
2022/08/11 16:21:26;;;;;;;1.00;0.70;;;29.90;99.90;;;;;;5124225;27;20460;-70
2022/08/11 16:23:57;;;;;;;0.80;0.70;;;29.80;99.90;;;;;;5130653;27;20920;-71
2022/08/11 16:26:26;;;;;;;0.77;0.60;;;29.80;99.90;;;;;;5132459;27;20506;-70
2022/08/11 16:28:56;;;;;;;0.70;0.60;;;29.80;99.90;;;;;;5132887;27;20471;-71
2022/08/11 16:31:24;;;;;;;0.77;0.60;;;29.70;99.90;;;;;;5132580;27;20479;-71
2022/08/11 16:33:56;;;;;;;0.80;0.50;;;29.60;99.90;;;;;;5131835;27;20832;-70
2022/08/11 16:39:12;;;;;;;1.10;0.70;;;29.60;99.90;;;;;;5134917;27;20435;-72
2022/08/11 16:47:18;;;;;;;0.70;0.57;;;29.50;99.90;;;;;;5134840;27;20527;-70
2022/08/11 16:49:48;;;;;;;0.90;0.60;;;29.50;99.90;;;;;;5136067;27;20564;-71
2022/08/11 16:52:16;;;;;;;0.70;0.60;;;29.40;99.90;;;;;;5135215;27;20827;-71
2022/08/11 16:54:46;;;;;;;0.80;0.67;;;29.30;99.90;;;;;;5135835;27;20479;-71
2022/08/11 17:00:06;;;;;;;1.77;0.63;;;29.20;99.90;;;;;;5136027;27;20439;-71
2022/08/11 17:13:47;;;;;;;3.53;0.60;;;29.00;99.90;;;;;;5132875;27;20477;-72
2022/08/11 17:16:21;;;;;;;0.70;0.60;;;28.90;99.90;;;;;;5128934;27;20480;-71
2022/08/11 17:18:54;;;;;;;3.23;0.77;;;28.80;99.90;;;;;;5135296;27;20736;-71
2022/08/11 17:21:26;;;;;;;0.90;0.50;;;28.70;99.90;;;;;;5136476;27;20819;-71
2022/08/11 17:23:55;;;;;;;0.77;0.60;;;28.60;99.90;;;;;;5129802;27;20758;-72
2022/08/11 17:26:53;;;;;;;0.80;0.60;;;28.60;99.90;;;;;;5133575;27;20467;-71
2022/08/11 17:29:20;;;;;;;0.60;0.57;;;28.50;99.90;;;;;;5107755;28;20563;-70
2022/08/11 17:37:21;;;;;;;0.70;0.60;;;28.40;99.90;;;;;;5125994;28;20538;-71
2022/08/11 17:39:49;;;;;;;0.60;0.50;;;28.30;99.90;;;;;;5122333;28;20440;-71
2022/08/11 17:50:33;;;;;;;1.10;0.70;;;28.10;99.90;;;;;;5140139;27;20418;-71
2022/08/11 18:01:20;;;;;;;1.10;0.80;;;27.90;99.90;;;;;;5137565;27;20474;-71
2022/08/11 18:03:48;;;;;;;2.73;0.67;;;27.90;99.90;;;;;;5138118;27;20474;-71
2022/08/11 18:06:18;;;;;;;0.87;0.70;;;27.90;99.90;;;;;;5138273;27;20496;-70
